Emden, Illinois
Current Conditions -  °F | °C
As of 7:35 AM on Thursday 23 Oct 2014 (Local Time) from KAAA Reporting Station
Clear Clear  
Wind Chill: 37°   Ceiling: Unl
Heat Index: 37°   Visibility: 7mi
Dew Point: 35°   Wind: 0mph
Humidity: 95%   Direction: NA
Pressure: 30.21"   Gusts: NA
Location:  40.3°N, 89.49°W
Report Text: KAAA 231235Z AUTO 00000KT 7SM CLR 03/02 A3021 RMK AO2 T00250018
Loading
Personal Weather Stations






























Interactive Weather Map
Tropical Storm Tracking
New forecast layout! Learn more

10-Day Weather Forecast

Advertisements
Track Severe Weather on mobile